createdAt,value
2022-09-06T00:02:44.015Z,15.34
2022-09-06T00:05:45.677Z,15.39
2022-09-06T00:08:47.730Z,15.36
2022-09-06T00:11:49.131Z,15.33
2022-09-06T00:14:50.805Z,15.40
2022-09-06T00:17:52.324Z,15.34
2022-09-06T00:20:53.846Z,15.24
2022-09-06T00:23:55.484Z,15.28
2022-09-06T00:26:57.031Z,15.28
2022-09-06T00:29:58.623Z,15.22
2022-09-06T00:33:00.150Z,15.21
2022-09-06T00:36:01.862Z,15.17
2022-09-06T00:39:03.413Z,15.17
2022-09-06T00:42:11.273Z,15.14
2022-09-06T00:45:12.844Z,15.18
2022-09-06T00:48:14.351Z,15.22
2022-09-06T00:51:15.914Z,15.25
2022-09-06T00:54:17.439Z,15.33
2022-09-06T00:57:19.015Z,15.27
2022-09-06T01:00:20.790Z,15.29
2022-09-06T01:03:23.138Z,15.29
2022-09-06T01:06:29.006Z,15.25
2022-09-06T01:10:08.114Z,15.23
2022-09-06T01:13:57.309Z,15.28
2022-09-06T01:17:40.551Z,15.25
2022-09-06T01:20:59.056Z,15.22
2022-09-06T01:24:17.712Z,15.31
2022-09-06T01:27:47.008Z,15.34
2022-09-06T01:30:57.831Z,15.40
2022-09-06T01:34:08.332Z,15.46
2022-09-06T01:37:14.663Z,15.50
2022-09-06T01:40:16.276Z,15.51
2022-09-06T01:43:31.143Z,15.58
2022-09-06T01:46:51.310Z,15.63
2022-09-06T01:50:11.598Z,15.66
2022-09-06T01:53:38.251Z,15.72
2022-09-06T01:56:48.522Z,15.84
2022-09-06T01:59:56.108Z,15.93
2022-09-06T02:03:06.545Z,16.00
2022-09-06T02:06:10.876Z,16.11
2022-09-06T02:09:16.084Z,16.30
2022-09-06T02:12:17.680Z,16.40
2022-09-06T02:15:24.836Z,16.45
2022-09-06T02:18:51.017Z,16.48
2022-09-06T02:21:52.518Z,16.43
2022-09-06T02:24:54.124Z,16.42
2022-09-06T02:27:55.623Z,16.42
2022-09-06T02:31:02.632Z,16.45
2022-09-06T02:34:04.505Z,16.47
2022-09-06T02:37:06.485Z,16.48
2022-09-06T02:40:09.014Z,16.47
2022-09-06T02:43:10.557Z,16.47
2022-09-06T02:46:12.641Z,16.46
2022-09-06T02:49:14.226Z,16.47
2022-09-06T02:52:15.722Z,16.51
2022-09-06T02:55:17.272Z,16.48
2022-09-06T02:58:18.862Z,16.43
2022-09-06T03:01:20.457Z,16.43
2022-09-06T03:04:22.115Z,16.40
2022-09-06T03:07:23.670Z,16.34
2022-09-06T03:10:26.206Z,16.28
2022-09-06T03:13:28.028Z,16.23
2022-09-06T03:16:29.671Z,16.22
2022-09-06T03:19:31.230Z,16.21
2022-09-06T03:22:32.879Z,16.12
2022-09-06T03:25:34.378Z,16.03
2022-09-06T03:28:35.872Z,16.00
2022-09-06T03:31:37.421Z,15.96
2022-09-06T03:34:38.938Z,16.00
2022-09-06T03:37:40.428Z,16.03
2022-09-06T03:40:44.731Z,16.03
2022-09-06T03:43:46.256Z,16.04
2022-09-06T03:46:51.606Z,15.96
2022-09-06T03:49:53.146Z,15.85
2022-09-06T03:52:54.755Z,15.83
2022-09-06T03:55:57.617Z,15.78
2022-09-06T03:58:59.395Z,15.77
2022-09-06T04:02:00.958Z,15.72
2022-09-06T04:05:02.550Z,15.70
2022-09-06T04:08:04.076Z,15.65
2022-09-06T04:11:05.623Z,15.52
2022-09-06T04:14:07.180Z,15.46
2022-09-06T04:17:08.684Z,15.30
2022-09-06T04:20:10.594Z,15.22
2022-09-06T04:23:12.112Z,15.13
2022-09-06T04:26:15.813Z,15.03
2022-09-06T04:29:17.334Z,15.00
2022-09-06T04:32:18.899Z,14.96
2022-09-06T04:35:20.505Z,14.87
2022-09-06T04:38:22.119Z,14.85
2022-09-06T04:41:23.706Z,14.85
2022-09-06T04:44:25.478Z,14.77
2022-09-06T04:47:26.963Z,14.80
2022-09-06T04:50:28.497Z,14.85
2022-09-06T04:53:30.006Z,14.74
2022-09-06T04:56:31.520Z,14.71
2022-09-06T04:59:33.090Z,14.71
2022-09-06T05:02:34.697Z,14.74
2022-09-06T05:05:36.303Z,14.78
2022-09-06T05:08:39.075Z,14.80
2022-09-06T05:11:40.636Z,14.69
2022-09-06T05:14:42.192Z,14.67
2022-09-06T05:17:43.723Z,14.73
2022-09-06T05:20:50.856Z,14.77
2022-09-06T05:23:55.475Z,14.79
2022-09-06T05:27:03.782Z,14.76
2022-09-06T05:30:05.671Z,14.74
2022-09-06T05:33:10.992Z,14.81
2022-09-06T05:36:12.535Z,14.77
2022-09-06T05:39:14.106Z,14.83
2022-09-06T05:42:19.162Z,14.86
2022-09-06T05:45:20.978Z,14.93
2022-09-06T05:48:22.549Z,15.02
2022-09-06T05:51:24.255Z,15.13
2022-09-06T05:54:25.850Z,15.23
2022-09-06T05:57:27.352Z,15.35
2022-09-06T06:00:28.884Z,15.46
2022-09-06T06:03:30.455Z,15.58
2022-09-06T06:06:32.843Z,15.49
2022-09-06T06:09:34.364Z,15.62
2022-09-06T06:12:35.935Z,15.75
2022-09-06T06:15:37.444Z,15.88
2022-09-06T06:18:38.967Z,15.98
2022-09-06T06:21:40.519Z,16.10
2022-09-06T06:24:42.041Z,16.15
2022-09-06T06:27:44.046Z,16.17
2022-09-06T06:30:45.557Z,16.27
2022-09-06T06:33:47.076Z,16.32
2022-09-06T06:36:48.591Z,16.40
2022-09-06T06:39:50.204Z,16.48
2022-09-06T06:42:51.764Z,16.53
2022-09-06T06:45:53.346Z,16.64
2022-09-06T06:48:55.516Z,16.70
2022-09-06T06:51:57.144Z,16.75
2022-09-06T06:54:58.849Z,16.86
2022-09-06T06:58:00.555Z,16.91
2022-09-06T07:01:02.207Z,16.97
2022-09-06T07:04:04.445Z,17.05
2022-09-06T07:10:34.618Z,17.16
2022-09-06T07:13:36.461Z,17.30
2022-09-06T07:16:38.046Z,17.34
2022-09-06T07:29:26.642Z,17.75
2022-09-06T07:32:28.171Z,17.88
2022-09-06T07:35:29.713Z,17.74
2022-09-06T07:38:31.439Z,17.78
2022-09-06T07:41:32.834Z,17.90
2022-09-06T07:44:34.410Z,18.06
2022-09-06T07:51:05.519Z,18.26
2022-09-06T07:54:29.452Z,18.33
2022-09-06T07:57:29.354Z,18.41
2022-09-06T08:00:31.684Z,18.46
2022-09-06T08:03:33.211Z,18.51
2022-09-06T08:10:00.657Z,18.48
2022-09-06T08:13:02.161Z,18.53
2022-09-06T08:16:08.260Z,18.63
2022-09-06T08:19:10.943Z,18.69
2022-09-06T08:22:12.562Z,18.70
2022-09-06T08:25:14.080Z,18.77
2022-09-06T08:28:15.799Z,18.95
2022-09-06T08:31:17.499Z,19.05
2022-09-06T08:34:19.067Z,19.13
2022-09-06T08:37:24.831Z,19.26
2022-09-06T08:40:26.675Z,19.33
2022-09-06T08:43:28.589Z,19.43
2022-09-06T08:46:42.471Z,19.57
2022-09-06T08:49:48.099Z,19.79
2022-09-06T08:53:06.509Z,20.14
2022-09-06T08:56:23.664Z,20.38
2022-09-06T08:59:25.177Z,20.50
2022-09-06T09:02:26.598Z,20.69
2022-09-06T09:05:30.449Z,21.02
2022-09-06T09:08:49.373Z,21.18
2022-09-06T09:11:51.044Z,21.05
2022-09-06T09:14:55.682Z,21.15
2022-09-06T09:17:58.253Z,21.31
2022-09-06T09:20:59.669Z,21.46
2022-09-06T09:24:05.972Z,21.52
2022-09-06T09:27:11.132Z,21.57
2022-09-06T09:33:36.764Z,21.70
2022-09-06T09:36:38.521Z,21.75
2022-09-06T09:39:40.148Z,21.91
2022-09-06T09:42:41.763Z,22.06
2022-09-06T09:45:43.612Z,22.17
2022-09-06T09:49:06.405Z,22.33
2022-09-06T09:52:12.257Z,22.46
2022-09-06T09:55:14.574Z,22.55
2022-09-06T09:58:20.527Z,22.67
2022-09-06T10:01:25.775Z,22.78
2022-09-06T10:07:46.586Z,23.13
2022-09-06T10:10:48.101Z,23.92
2022-09-06T10:13:49.603Z,24.71
2022-09-06T10:16:52.179Z,25.27
2022-09-06T10:19:53.804Z,25.13
2022-09-06T10:23:04.755Z,25.12
2022-09-06T10:26:09.220Z,26.09
2022-09-06T10:29:10.798Z,26.66
2022-09-06T10:32:31.277Z,26.59
2022-09-06T10:35:37.412Z,27.27
2022-09-06T10:38:51.280Z,27.85
2022-09-06T10:42:04.842Z,27.45
2022-09-06T10:45:29.313Z,27.63
2022-09-06T10:48:38.398Z,27.60
2022-09-06T10:51:44.025Z,27.53
2022-09-06T10:54:47.284Z,27.35
2022-09-06T11:01:21.274Z,27.64
2022-09-06T11:11:54.057Z,28.30
2022-09-06T11:14:55.658Z,28.80
2022-09-06T11:18:03.000Z,28.39
2022-09-06T11:21:42.318Z,29.02
2022-09-06T11:25:42.517Z,29.41
2022-09-06T11:28:46.281Z,29.05
2022-09-06T11:35:24.127Z,28.72
2022-09-06T11:38:26.486Z,28.75
2022-09-06T11:41:35.585Z,28.73
2022-09-06T11:45:06.525Z,29.45
2022-09-06T11:48:37.494Z,29.24
2022-09-06T11:51:43.507Z,29.50
2022-09-06T11:54:45.026Z,29.06
2022-09-06T11:57:46.586Z,28.59
2022-09-06T12:01:13.882Z,28.43
2022-09-06T12:04:15.417Z,28.51
2022-09-06T12:07:16.925Z,28.20
2022-09-06T12:10:30.565Z,28.15
2022-09-06T12:13:47.481Z,28.12
2022-09-06T12:17:01.343Z,28.55
2022-09-06T12:20:07.002Z,28.54
2022-09-06T12:23:08.690Z,28.11
2022-09-06T12:26:10.839Z,27.59
2022-09-06T12:29:12.398Z,27.35
2022-09-06T12:32:13.903Z,27.17
2022-09-06T12:38:58.949Z,27.06
2022-09-06T12:42:02.013Z,26.86
2022-09-06T12:45:04.523Z,26.57
2022-09-06T12:48:09.827Z,26.42
2022-09-06T12:51:19.443Z,26.69
2022-09-06T12:54:22.972Z,26.83
2022-09-06T12:57:25.086Z,26.89
2022-09-06T13:00:32.385Z,27.22
2022-09-06T13:03:50.234Z,28.26
2022-09-06T13:06:51.749Z,27.64
2022-09-06T13:09:54.400Z,28.53
2022-09-06T13:12:57.252Z,28.58
2022-09-06T13:15:58.803Z,28.44
2022-09-06T13:19:13.722Z,27.59
2022-09-06T13:22:38.918Z,27.69
2022-09-06T13:25:48.014Z,27.85
2022-09-06T13:28:49.518Z,27.55
2022-09-06T13:31:52.368Z,27.38
2022-09-06T13:34:56.989Z,27.68
2022-09-06T13:38:21.074Z,27.44
2022-09-06T13:41:25.600Z,27.52
2022-09-06T13:44:31.474Z,27.07
2022-09-06T13:47:33.016Z,27.48
2022-09-06T13:50:34.514Z,28.24
2022-09-06T13:53:36.204Z,28.50
2022-09-06T13:56:37.737Z,28.88
2022-09-06T13:59:39.659Z,27.85
2022-09-06T14:02:41.642Z,27.40
2022-09-06T14:05:44.256Z,26.96
2022-09-06T14:12:07.270Z,27.55
2022-09-06T14:15:09.945Z,27.88
2022-09-06T14:18:14.488Z,28.88
2022-09-06T14:21:16.569Z,29.27
2022-09-06T14:24:18.108Z,29.77
2022-09-06T14:27:19.692Z,29.84
2022-09-06T14:30:21.227Z,29.53
2022-09-06T14:33:22.785Z,29.51
2022-09-06T14:36:29.365Z,29.11
2022-09-06T14:39:30.940Z,29.58
2022-09-06T14:42:32.515Z,29.27
2022-09-06T14:45:34.357Z,28.11
2022-09-06T14:48:39.163Z,28.06
2022-09-06T14:51:43.620Z,27.95
2022-09-06T14:54:45.154Z,27.83
2022-09-06T14:57:46.721Z,27.64
2022-09-06T15:00:50.172Z,27.61
2022-09-06T15:03:54.277Z,27.65
2022-09-06T15:06:56.064Z,27.69
2022-09-06T15:09:57.926Z,27.74
2022-09-06T15:12:59.429Z,27.74
2022-09-06T15:16:01.061Z,27.68
2022-09-06T15:19:02.823Z,27.75
2022-09-06T15:22:04.723Z,27.23
2022-09-06T15:25:06.770Z,27.36
2022-09-06T15:28:08.935Z,27.29
2022-09-06T15:31:10.830Z,27.08
2022-09-06T15:34:12.371Z,27.00
2022-09-06T15:37:13.869Z,26.89
2022-09-06T15:40:15.495Z,27.07
2022-09-06T15:43:17.104Z,27.23
2022-09-06T15:46:21.195Z,27.17
2022-09-06T15:49:28.355Z,27.15
2022-09-06T15:52:30.167Z,27.25
2022-09-06T15:55:50.125Z,26.89
2022-09-06T15:58:51.796Z,27.06
2022-09-06T16:01:53.340Z,27.10
2022-09-06T16:04:54.938Z,27.05
2022-09-06T16:07:56.485Z,27.05
2022-09-06T16:10:58.194Z,26.96
2022-09-06T16:13:59.782Z,26.76
2022-09-06T16:17:01.357Z,26.71
2022-09-06T16:20:03.634Z,26.74
2022-09-06T16:23:05.221Z,26.80
2022-09-06T16:26:07.098Z,26.83
2022-09-06T16:29:09.772Z,26.72
2022-09-06T16:32:11.780Z,26.30
2022-09-06T16:35:13.338Z,26.40
2022-09-06T16:38:14.830Z,26.39
2022-09-06T16:41:25.283Z,26.31
2022-09-06T16:44:26.976Z,26.13
2022-09-06T16:47:28.502Z,25.94
2022-09-06T16:50:30.162Z,25.68
2022-09-06T16:53:31.676Z,25.46
2022-09-06T16:56:35.682Z,25.21
2022-09-06T16:59:38.109Z,24.88
2022-09-06T17:02:43.711Z,24.75
2022-09-06T17:05:51.646Z,24.47
2022-09-06T17:08:53.238Z,24.42
2022-09-06T17:11:55.144Z,24.31
2022-09-06T17:14:56.765Z,24.15
2022-09-06T17:17:58.260Z,23.96
2022-09-06T17:21:05.116Z,23.67
2022-09-06T17:24:07.389Z,23.43
2022-09-06T17:27:09.045Z,23.28
2022-09-06T17:30:11.113Z,23.06
2022-09-06T17:33:13.506Z,22.95
2022-09-06T17:36:17.663Z,22.75
2022-09-06T17:39:21.010Z,22.52
2022-09-06T17:42:22.577Z,22.31
2022-09-06T17:45:24.112Z,22.29
2022-09-06T17:48:27.731Z,22.19
2022-09-06T17:51:29.390Z,22.03
2022-09-06T17:54:31.815Z,21.95
2022-09-06T17:57:34.470Z,21.89
2022-09-06T18:00:39.374Z,21.82
2022-09-06T18:03:41.683Z,21.67
2022-09-06T18:06:43.384Z,21.55
2022-09-06T18:09:45.292Z,21.39
2022-09-06T18:12:46.786Z,21.28
2022-09-06T18:15:48.148Z,21.15
2022-09-06T18:18:54.207Z,21.09
2022-09-06T18:21:57.184Z,21.00
2022-09-06T18:24:58.885Z,20.95
2022-09-06T18:28:00.286Z,20.79
2022-09-06T18:31:09.114Z,20.57
2022-09-06T18:34:10.693Z,20.44
2022-09-06T18:37:12.183Z,20.45
2022-09-06T18:40:13.783Z,20.49
2022-09-06T18:43:15.347Z,20.39
2022-09-06T18:46:16.901Z,20.17
2022-09-06T18:49:18.431Z,19.93
2022-09-06T18:52:20.716Z,19.86
2022-09-06T18:55:22.327Z,19.88
2022-09-06T18:58:23.766Z,19.88
2022-09-06T19:01:26.519Z,19.91
2022-09-06T19:04:28.166Z,19.75
2022-09-06T19:07:29.842Z,19.67
2022-09-06T19:10:31.447Z,19.61
2022-09-06T19:13:33.789Z,19.47
2022-09-06T19:16:35.509Z,19.42
2022-09-06T19:19:37.104Z,19.27
2022-09-06T19:22:38.595Z,19.32
2022-09-06T19:25:40.170Z,19.39
2022-09-06T19:28:41.726Z,19.34
2022-09-06T19:31:43.441Z,19.20
2022-09-06T19:34:44.889Z,19.22
2022-09-06T19:37:46.416Z,19.04
2022-09-06T19:40:48.069Z,18.88
2022-09-06T19:43:53.775Z,18.77
2022-09-06T19:46:55.521Z,18.75
2022-09-06T19:49:57.006Z,18.78
2022-09-06T19:52:58.525Z,18.68
2022-09-06T19:56:00.145Z,18.50
2022-09-06T19:59:07.140Z,18.38
2022-09-06T20:02:09.442Z,18.38
2022-09-06T20:05:11.062Z,18.38
2022-09-06T20:08:13.198Z,18.38
2022-09-06T20:11:14.893Z,18.39
2022-09-06T20:14:16.509Z,18.29
2022-09-06T20:17:33.204Z,18.27
2022-09-06T20:20:35.122Z,18.25
2022-09-06T20:23:36.719Z,18.07
2022-09-06T20:26:38.358Z,18.07
2022-09-06T20:29:39.930Z,18.06
2022-09-06T20:32:42.316Z,17.90
2022-09-06T20:35:43.852Z,17.83
2022-09-06T20:38:45.980Z,17.85
2022-09-06T20:41:47.541Z,17.78
2022-09-06T20:44:49.091Z,17.73
2022-09-06T20:47:50.686Z,17.65
2022-09-06T20:50:59.887Z,17.67
2022-09-06T20:54:02.376Z,17.70
2022-09-06T20:57:03.962Z,17.77
2022-09-06T21:00:05.845Z,17.69
2022-09-06T21:03:07.616Z,17.64
2022-09-06T21:06:10.298Z,17.68
2022-09-06T21:09:13.178Z,17.65
2022-09-06T21:12:14.653Z,17.63
2022-09-06T21:15:16.218Z,17.42
2022-09-06T21:18:17.795Z,17.31
2022-09-06T21:21:19.646Z,17.33
2022-09-06T21:24:21.147Z,17.39
2022-09-06T21:27:22.685Z,17.39
2022-09-06T21:30:24.244Z,17.31
2022-09-06T21:33:31.313Z,17.33
2022-09-06T21:36:35.745Z,17.24
2022-09-06T21:39:38.300Z,17.16
2022-09-06T21:42:39.920Z,17.11
2022-09-06T21:45:41.519Z,17.06
2022-09-06T21:48:44.516Z,17.12
2022-09-06T21:51:46.107Z,17.18
2022-09-06T21:54:47.658Z,17.23
2022-09-06T21:57:50.174Z,17.25
2022-09-06T22:00:52.743Z,17.28
2022-09-06T22:03:54.345Z,17.26
2022-09-06T22:06:55.861Z,17.17
2022-09-06T22:09:57.403Z,17.14
2022-09-06T22:12:58.894Z,17.18
2022-09-06T22:16:07.486Z,17.14
2022-09-06T22:19:09.982Z,17.21
2022-09-06T22:22:11.509Z,17.15
2022-09-06T22:25:13.748Z,17.12
2022-09-06T22:28:15.387Z,17.17
2022-09-06T22:31:16.970Z,17.18
2022-09-06T22:34:18.564Z,17.27
2022-09-06T22:37:20.154Z,17.38
2022-09-06T22:40:21.737Z,17.32
2022-09-06T22:43:23.267Z,17.27
2022-09-06T22:46:24.857Z,17.29
2022-09-06T22:49:26.391Z,17.33
2022-09-06T22:52:27.974Z,17.26
2022-09-06T22:55:29.796Z,17.28
2022-09-06T22:58:31.322Z,17.28
2022-09-06T23:01:38.710Z,17.22
2022-09-06T23:04:40.277Z,17.18
2022-09-06T23:07:43.361Z,17.17
2022-09-06T23:10:44.884Z,17.05
2022-09-06T23:13:47.156Z,16.99
2022-09-06T23:16:48.758Z,16.97
2022-09-06T23:19:50.318Z,16.99
2022-09-06T23:22:51.844Z,17.07
2022-09-06T23:25:54.177Z,17.05
2022-09-06T23:28:56.716Z,17.08
2022-09-06T23:31:58.349Z,17.03
2022-09-06T23:34:59.859Z,17.04
2022-09-06T23:38:01.376Z,17.00
2022-09-06T23:41:03.145Z,17.05
2022-09-06T23:44:04.704Z,17.08
2022-09-06T23:47:06.231Z,17.10
2022-09-06T23:50:07.924Z,17.01
2022-09-06T23:53:10.459Z,16.98
2022-09-06T23:56:12.282Z,17.07
2022-09-06T23:59:13.766Z,16.98
